Terminal Aerodrome Forecast
Issued by NWS Jacksonville, FL

Home | Current Version | Previous Version | Text Only | Print | Product List | Glossary On
Versions: 1 2 3 4 5 6 7 8 9 10 11 12 13 14 15 16 17 18 19 20 21 22 23 24 25 26 27
000
FTUS42 KJAX 171723
TAFJAX
TAF
KJAX 171723Z 1718/1818 21008KT P6SM FEW030 BKN250
     FM172100 15006KT P6SM SCT040 BKN250
     FM180100 18004KT P6SM SCT050 BKN250
     FM180500 00000KT 3SM BR SCT002
     FM180600 VRB02KT 1/4SM FG OVC002
     FM181500 24005KT P6SM BKN250=

USA.gov is the U.S. government's official web portal to all federal, state and local government web resources and services.